createdAt,value
2022-12-13T00:00:14.793Z,-7.77
2022-12-13T00:00:33.303Z,-7.77
2022-12-13T00:01:04.315Z,-7.77
2022-12-13T00:01:35.329Z,-7.77
2022-12-13T00:02:06.381Z,-7.77
2022-12-13T00:02:37.349Z,-7.77
2022-12-13T00:03:08.393Z,-7.88
2022-12-13T00:03:39.341Z,-7.88
2022-12-13T00:04:11.343Z,-7.88
2022-12-13T00:04:41.337Z,-7.88
2022-12-13T00:05:12.540Z,-7.88
2022-12-13T00:05:43.326Z,-7.88
2022-12-13T00:06:14.353Z,-7.88
2022-12-13T00:06:45.304Z,-7.88
2022-12-13T00:07:16.341Z,-7.88
2022-12-13T00:07:47.502Z,-8.00
2022-12-13T00:08:18.369Z,-8.00
2022-12-13T00:08:49.301Z,-8.00
2022-12-13T00:09:21.317Z,-8.00
2022-12-13T00:09:51.315Z,-8.00
2022-12-13T00:10:22.393Z,-8.00
2022-12-13T00:10:53.288Z,-8.00
2022-12-13T00:11:24.321Z,-8.00
2022-12-13T00:11:55.393Z,-8.00
2022-12-13T00:12:26.367Z,-8.00
2022-12-13T00:12:57.295Z,-8.00
2022-12-13T00:13:28.299Z,-8.00
2022-12-13T00:13:59.293Z,-8.00
2022-12-13T00:14:31.336Z,-8.00
2022-12-13T00:15:14.002Z,-8.00
2022-12-13T00:15:32.301Z,-8.00
2022-12-13T00:16:03.340Z,-8.00
2022-12-13T00:16:34.326Z,-8.00
2022-12-13T00:17:05.309Z,-8.00
2022-12-13T00:17:36.311Z,-8.00
2022-12-13T00:18:07.402Z,-8.00
2022-12-13T00:18:38.332Z,-8.00
2022-12-13T00:19:09.308Z,-8.00
2022-12-13T00:19:41.304Z,-8.00
2022-12-13T00:20:11.297Z,-8.00
2022-12-13T00:20:42.306Z,-8.00
2022-12-13T00:21:13.289Z,-8.00
2022-12-13T00:21:44.300Z,-8.00
2022-12-13T00:22:15.323Z,-8.00
2022-12-13T00:22:46.286Z,-8.00
2022-12-13T00:23:17.307Z,-8.00
2022-12-13T00:23:48.347Z,-8.00
2022-12-13T00:24:19.285Z,-8.00
2022-12-13T00:24:51.308Z,-8.00
2022-12-13T00:25:21.320Z,-8.00
2022-12-13T00:25:52.372Z,-8.22
2022-12-13T00:26:23.287Z,-8.22
2022-12-13T00:26:54.305Z,-8.22
2022-12-13T00:27:25.316Z,-8.22
2022-12-13T00:27:56.323Z,-8.27
2022-12-13T00:28:27.270Z,-8.27
2022-12-13T00:28:58.361Z,-8.27
2022-12-13T00:29:29.308Z,-8.27
2022-12-13T00:30:13.644Z,-8.27
2022-12-13T00:30:31.325Z,-8.27
2022-12-13T00:31:26.116Z,-8.27
2022-12-13T00:32:04.387Z,-8.27
2022-12-13T00:32:35.338Z,-8.27
2022-12-13T00:33:06.323Z,-8.27
2022-12-13T00:33:37.326Z,-8.27
2022-12-13T00:34:08.391Z,-8.27
2022-12-13T00:34:39.313Z,-8.27
2022-12-13T00:35:11.498Z,-8.27
2022-12-13T00:35:41.280Z,-8.27
2022-12-13T00:36:12.287Z,-8.27
2022-12-13T00:36:43.343Z,-8.27
2022-12-13T00:37:14.297Z,-8.27
2022-12-13T00:37:45.348Z,-8.27
2022-12-13T00:38:16.322Z,-8.27
2022-12-13T00:38:48.297Z,-8.22
2022-12-13T00:39:18.282Z,-8.22
2022-12-13T00:39:49.302Z,-8.22
2022-12-13T00:40:21.272Z,-8.22
2022-12-13T00:40:51.335Z,-8.22
2022-12-13T00:41:22.283Z,-8.22
2022-12-13T00:41:53.293Z,-8.11
2022-12-13T00:42:24.282Z,-8.11
2022-12-13T00:42:55.353Z,-8.11
2022-12-13T00:43:26.301Z,-8.11
2022-12-13T00:43:57.401Z,-8.11
2022-12-13T00:44:28.347Z,-8.11
2022-12-13T00:44:59.295Z,-8.11
2022-12-13T00:45:43.719Z,-8.11
2022-12-13T00:46:01.366Z,-8.22
2022-12-13T00:46:32.474Z,-8.22
2022-12-13T00:47:03.379Z,-8.11
2022-12-13T00:47:34.301Z,-8.11
2022-12-13T00:48:05.297Z,-8.11
2022-12-13T00:48:36.319Z,-8.11
2022-12-13T00:49:07.361Z,-8.11
2022-12-13T00:49:38.298Z,-8.11
2022-12-13T00:50:09.310Z,-8.11
2022-12-13T00:50:41.286Z,-8.22
2022-12-13T00:51:11.284Z,-8.22
2022-12-13T00:51:42.285Z,-8.22
2022-12-13T00:52:13.294Z,-8.22
2022-12-13T00:52:44.330Z,-8.22
2022-12-13T00:53:15.282Z,-8.22
2022-12-13T00:53:46.345Z,-8.22
2022-12-13T00:54:17.314Z,-8.22
2022-12-13T00:54:48.392Z,-8.22
2022-12-13T00:55:19.282Z,-8.22
2022-12-13T00:55:51.296Z,-8.22
2022-12-13T00:56:21.290Z,-8.22
2022-12-13T00:56:52.318Z,-8.22
2022-12-13T00:57:23.305Z,-8.22
2022-12-13T00:57:54.294Z,-8.22
2022-12-13T00:58:25.283Z,-8.22
2022-12-13T00:58:56.289Z,-8.22
2022-12-13T00:59:27.283Z,-8.22
2022-12-13T00:59:58.340Z,-8.22
2022-12-13T01:00:41.672Z,-8.22
2022-12-13T01:01:01.406Z,-8.22
2022-12-13T01:01:31.429Z,-8.11
2022-12-13T01:02:02.507Z,-8.11
2022-12-13T01:02:33.291Z,-8.11
2022-12-13T01:03:04.391Z,-8.11
2022-12-13T01:03:35.339Z,-8.11
2022-12-13T01:04:06.352Z,-8.11
2022-12-13T01:04:37.294Z,-8.11
2022-12-13T01:05:08.290Z,-8.11
2022-12-13T01:06:13.660Z,-8.11
2022-12-13T01:06:41.280Z,-8.11
2022-12-13T01:07:12.279Z,-8.11
2022-12-13T01:07:43.441Z,-8.11
2022-12-13T01:08:14.361Z,-8.11
2022-12-13T01:08:45.352Z,-8.11
2022-12-13T01:09:16.299Z,-8.11
2022-12-13T01:09:47.324Z,-8.11
2022-12-13T01:10:18.311Z,-8.11
2022-12-13T01:10:49.301Z,-8.11
2022-12-13T01:11:21.276Z,-8.11
2022-12-13T01:11:51.285Z,-8.11
2022-12-13T01:12:22.344Z,-8.11
2022-12-13T01:12:53.272Z,-8.11
2022-12-13T01:13:24.323Z,-8.11
2022-12-13T01:13:55.310Z,-8.11
2022-12-13T01:14:26.315Z,-8.11
2022-12-13T01:14:57.344Z,-8.11
2022-12-13T01:15:40.636Z,-8.11
2022-12-13T01:15:59.322Z,-8.00
2022-12-13T01:16:31.419Z,-8.00
2022-12-13T01:17:01.355Z,-8.11
2022-12-13T01:17:32.293Z,-8.11
2022-12-13T01:18:03.357Z,-8.11
2022-12-13T01:18:34.271Z,-8.11
2022-12-13T01:19:05.295Z,-8.11
2022-12-13T01:19:36.345Z,-8.11
2022-12-13T01:20:07.313Z,-8.11
2022-12-13T01:20:38.336Z,-8.22
2022-12-13T01:21:09.297Z,-8.22
2022-12-13T01:21:41.281Z,-8.22
2022-12-13T01:22:11.276Z,-8.22
2022-12-13T01:22:42.319Z,-8.22
2022-12-13T01:23:13.331Z,-8.22
2022-12-13T01:23:44.320Z,-8.22
2022-12-13T01:24:15.292Z,-8.22
2022-12-13T01:24:46.289Z,-8.22
2022-12-13T01:25:17.348Z,-8.22
2022-12-13T01:25:48.281Z,-8.22
2022-12-13T01:26:19.256Z,-8.22
2022-12-13T01:26:51.272Z,-8.22
2022-12-13T01:27:21.324Z,-8.22
2022-12-13T01:27:52.274Z,-8.22
2022-12-13T01:28:23.272Z,-8.22
2022-12-13T01:28:54.288Z,-8.11
2022-12-13T01:29:26.066Z,-8.11
2022-12-13T01:29:56.311Z,-8.11
2022-12-13T01:30:39.738Z,-8.11
2022-12-13T01:30:58.312Z,-8.11
2022-12-13T01:31:29.485Z,-8.11
2022-12-13T01:32:01.272Z,-8.11
2022-12-13T01:32:31.284Z,-8.11
2022-12-13T01:33:02.454Z,-8.11
2022-12-13T01:33:33.261Z,-8.11
2022-12-13T01:34:04.309Z,-8.11
2022-12-13T01:34:35.327Z,-8.11
2022-12-13T01:35:06.311Z,-8.11
2022-12-13T01:35:37.308Z,-8.11
2022-12-13T01:36:08.282Z,-7.88
2022-12-13T01:36:39.339Z,-7.88
2022-12-13T01:37:11.260Z,-7.88
2022-12-13T01:37:41.254Z,-7.88
2022-12-13T01:38:15.818Z,-7.88
2022-12-13T01:38:43.275Z,-7.88
2022-12-13T01:39:15.127Z,-7.88
2022-12-13T01:39:45.253Z,-7.88
2022-12-13T01:40:16.588Z,-7.88
2022-12-13T01:40:47.280Z,-7.88
2022-12-13T01:41:18.415Z,-7.88
2022-12-13T01:41:49.271Z,-8.00
2022-12-13T01:42:21.291Z,-8.00
2022-12-13T01:42:51.268Z,-8.00
2022-12-13T01:43:22.308Z,-8.00
2022-12-13T01:43:53.295Z,-8.00
2022-12-13T01:44:24.267Z,-8.00
2022-12-13T01:44:55.423Z,-8.00
2022-12-13T01:45:38.661Z,-8.00
2022-12-13T01:45:57.472Z,-8.00
2022-12-13T01:46:28.331Z,-8.00
2022-12-13T01:46:59.343Z,-8.00
2022-12-13T01:47:31.292Z,-8.00
2022-12-13T01:48:01.251Z,-8.00
2022-12-13T01:48:32.277Z,-8.00
2022-12-13T01:49:03.324Z,-8.00
2022-12-13T01:49:34.316Z,-8.00
2022-12-13T01:50:05.326Z,-8.00
2022-12-13T01:50:36.326Z,-8.00
2022-12-13T01:51:07.320Z,-8.00
2022-12-13T01:51:38.324Z,-8.00
2022-12-13T01:52:09.294Z,-8.00
2022-12-13T01:52:41.259Z,-8.00
2022-12-13T01:53:11.300Z,-8.00
2022-12-13T01:53:42.276Z,-7.88
2022-12-13T01:54:13.346Z,-7.88
2022-12-13T01:54:46.454Z,-7.88
2022-12-13T01:55:15.276Z,-7.88
2022-12-13T01:55:46.485Z,-7.88
2022-12-13T01:56:17.317Z,-7.88
2022-12-13T01:56:48.315Z,-7.77
2022-12-13T01:57:19.268Z,-7.77
2022-12-13T01:57:51.259Z,-7.77
2022-12-13T01:58:21.257Z,-7.77
2022-12-13T01:58:52.310Z,-7.88
2022-12-13T01:59:23.303Z,-7.88
2022-12-13T01:59:54.257Z,-7.88
2022-12-13T02:00:37.629Z,-7.88
2022-12-13T02:00:56.429Z,-7.88
2022-12-13T02:01:27.375Z,-7.88
2022-12-13T02:02:00.659Z,-7.88
2022-12-13T02:02:29.297Z,-7.88
2022-12-13T02:03:01.280Z,-7.88
2022-12-13T02:03:31.271Z,-7.88
2022-12-13T02:04:02.388Z,-7.88
2022-12-13T02:04:33.339Z,-7.88
2022-12-13T02:05:04.369Z,-7.88
2022-12-13T02:05:35.349Z,-7.88
2022-12-13T02:06:06.370Z,-7.88
2022-12-13T02:06:37.319Z,-7.77
2022-12-13T02:07:08.315Z,-7.77
2022-12-13T02:07:39.291Z,-7.77
2022-12-13T02:08:11.341Z,-7.77
2022-12-13T02:08:41.261Z,-7.77
2022-12-13T02:09:12.302Z,-7.72
2022-12-13T02:09:43.291Z,-7.72
2022-12-13T02:10:14.313Z,-7.72
2022-12-13T02:10:45.268Z,-7.61
2022-12-13T02:11:16.263Z,-7.61
2022-12-13T02:11:47.308Z,-7.61
2022-12-13T02:12:18.243Z,-7.61
2022-12-13T02:12:49.279Z,-7.61
2022-12-13T02:13:21.269Z,-7.61
2022-12-13T02:13:51.273Z,-7.61
2022-12-13T02:14:22.269Z,-7.61
2022-12-13T02:14:53.314Z,-7.50
2022-12-13T02:15:36.699Z,-7.50
2022-12-13T02:15:55.328Z,-7.50
2022-12-13T02:16:26.358Z,-7.50
2022-12-13T02:16:57.279Z,-7.50
2022-12-13T02:17:28.324Z,-7.50
2022-12-13T02:17:59.289Z,-7.50
2022-12-13T02:18:31.339Z,-7.50
2022-12-13T02:19:01.256Z,-7.50
2022-12-13T02:19:32.558Z,-7.50
2022-12-13T02:20:03.313Z,-7.50
2022-12-13T02:20:34.284Z,-7.50
2022-12-13T02:21:05.320Z,-7.50
2022-12-13T02:21:36.283Z,-7.61
2022-12-13T02:22:07.485Z,-7.61
2022-12-13T02:22:38.307Z,-7.61
2022-12-13T02:23:09.259Z,-7.61
2022-12-13T02:23:41.244Z,-7.61
2022-12-13T02:24:11.260Z,-7.61
2022-12-13T02:24:42.267Z,-7.61
2022-12-13T02:25:13.557Z,-7.61
2022-12-13T02:25:44.341Z,-7.61
2022-12-13T02:26:15.279Z,-7.61
2022-12-13T02:26:46.288Z,-7.61
2022-12-13T02:27:17.409Z,-7.72
2022-12-13T02:27:48.348Z,-7.72
2022-12-13T02:28:30.333Z,-7.72
2022-12-13T02:28:51.256Z,-7.72
2022-12-13T02:29:30.013Z,-7.72
2022-12-13T02:29:52.253Z,-7.72
2022-12-13T02:30:35.673Z,-7.72
2022-12-13T02:30:54.326Z,-7.72
2022-12-13T02:31:25.272Z,-7.72
2022-12-13T02:31:56.265Z,-7.72
2022-12-13T02:32:27.277Z,-7.72
2022-12-13T02:32:58.316Z,-7.72
2022-12-13T02:33:29.282Z,-7.72
2022-12-13T02:34:01.319Z,-7.72
2022-12-13T02:34:31.345Z,-7.72
2022-12-13T02:35:02.366Z,-7.72
2022-12-13T02:35:33.252Z,-7.72
2022-12-13T02:36:04.299Z,-7.72
2022-12-13T02:36:36.587Z,-7.72
2022-12-13T02:37:06.348Z,-7.72
2022-12-13T02:37:37.266Z,-7.77
2022-12-13T02:38:08.267Z,-7.77
2022-12-13T02:38:39.279Z,-7.77
2022-12-13T02:39:11.254Z,-7.77
2022-12-13T02:39:41.263Z,-7.77
2022-12-13T02:40:12.271Z,-7.77
2022-12-13T02:40:43.321Z,-7.77
2022-12-13T02:41:14.354Z,-7.88
2022-12-13T02:41:45.240Z,-7.88
2022-12-13T02:42:21.896Z,-7.88
2022-12-13T02:42:47.330Z,-7.88
2022-12-13T02:43:18.273Z,-7.88
2022-12-13T02:43:49.261Z,-7.88
2022-12-13T02:44:22.101Z,-7.88
2022-12-13T02:44:51.282Z,-7.88
2022-12-13T02:45:34.583Z,-7.88
2022-12-13T02:45:53.336Z,-7.88
2022-12-13T02:46:24.308Z,-7.88
2022-12-13T02:46:55.475Z,-7.88
2022-12-13T02:47:26.281Z,-7.88
2022-12-13T02:47:57.292Z,-7.88
2022-12-13T02:48:28.267Z,-7.88
2022-12-13T02:48:59.316Z,-7.88
2022-12-13T02:49:31.326Z,-7.88
2022-12-13T02:50:01.282Z,-7.88
2022-12-13T02:50:32.340Z,-8.00
2022-12-13T02:51:03.326Z,-8.00
2022-12-13T02:51:34.272Z,-8.00
2022-12-13T02:52:05.258Z,-8.00
2022-12-13T02:52:36.288Z,-8.00
2022-12-13T02:53:07.339Z,-8.00
2022-12-13T02:53:38.245Z,-8.00
2022-12-13T02:54:09.255Z,-8.00
2022-12-13T02:54:42.579Z,-8.00
2022-12-13T02:55:11.247Z,-8.11
2022-12-13T02:55:42.263Z,-8.11
2022-12-13T02:56:13.327Z,-8.11
2022-12-13T02:56:44.263Z,-8.11
2022-12-13T02:57:15.244Z,-8.11
2022-12-13T02:57:46.255Z,-8.11
2022-12-13T02:58:17.309Z,-8.11
2022-12-13T02:58:48.287Z,-8.11
2022-12-13T02:59:19.244Z,-8.11
2022-12-13T02:59:52.550Z,-8.11
2022-12-13T03:00:33.628Z,-8.11
2022-12-13T03:00:52.265Z,-8.11
2022-12-13T03:01:28.766Z,-8.11
2022-12-13T03:01:54.286Z,-8.11
2022-12-13T03:02:31.147Z,-8.00
2022-12-13T03:02:57.227Z,-8.00
2022-12-13T03:03:27.448Z,-8.00
2022-12-13T03:03:58.302Z,-8.00
2022-12-13T03:04:29.254Z,-8.00
2022-12-13T03:05:01.267Z,-8.00
2022-12-13T03:05:31.246Z,-8.00
2022-12-13T03:06:02.377Z,-8.00
2022-12-13T03:06:34.138Z,-8.00
2022-12-13T03:07:04.519Z,-8.00
2022-12-13T03:07:35.268Z,-8.00
2022-12-13T03:08:06.311Z,-8.00
2022-12-13T03:08:37.261Z,-7.88
2022-12-13T03:09:08.308Z,-7.88
2022-12-13T03:09:39.260Z,-7.88
2022-12-13T03:10:11.274Z,-7.88
2022-12-13T03:10:41.247Z,-7.88
2022-12-13T03:11:12.266Z,-7.88
2022-12-13T03:11:43.238Z,-7.88
2022-12-13T03:12:14.288Z,-7.88
2022-12-13T03:12:45.242Z,-7.88
2022-12-13T03:13:16.235Z,-7.88
2022-12-13T03:13:47.282Z,-7.88
2022-12-13T03:14:18.278Z,-7.88
2022-12-13T03:14:49.293Z,-7.88
2022-12-13T03:15:33.658Z,-7.77
2022-12-13T03:15:51.327Z,-7.77
2022-12-13T03:16:22.574Z,-7.77
2022-12-13T03:16:53.252Z,-7.77
2022-12-13T03:17:24.267Z,-7.77
2022-12-13T03:17:55.268Z,-7.77
2022-12-13T03:18:26.255Z,-7.77
2022-12-13T03:18:57.306Z,-7.77
2022-12-13T03:19:28.313Z,-7.77
2022-12-13T03:19:59.301Z,-7.77
2022-12-13T03:20:31.270Z,-7.77
2022-12-13T03:21:01.252Z,-7.77
2022-12-13T03:21:32.308Z,-7.72
2022-12-13T03:22:03.284Z,-7.72
2022-12-13T03:22:34.245Z,-7.72
2022-12-13T03:23:05.249Z,-7.72
2022-12-13T03:23:36.255Z,-7.72
2022-12-13T03:24:07.369Z,-7.72
2022-12-13T03:24:38.244Z,-7.72
2022-12-13T03:25:09.264Z,-7.72
2022-12-13T03:25:41.247Z,-7.72
2022-12-13T03:26:11.249Z,-7.50
2022-12-13T03:26:42.257Z,-7.50
2022-12-13T03:27:13.249Z,-7.61
2022-12-13T03:27:44.310Z,-7.61
2022-12-13T03:28:15.252Z,-7.61
2022-12-13T03:28:46.228Z,-7.61
2022-12-13T03:29:23.643Z,-7.61
2022-12-13T03:29:48.237Z,-7.61
2022-12-13T03:30:31.609Z,-7.61
2022-12-13T03:30:51.319Z,-7.61
2022-12-13T03:31:21.303Z,-7.61
2022-12-13T03:31:52.375Z,-7.61
2022-12-13T03:32:23.245Z,-7.72
2022-12-13T03:32:54.285Z,-7.72
2022-12-13T03:33:25.262Z,-7.72
2022-12-13T03:33:56.259Z,-7.72
2022-12-13T03:34:27.263Z,-7.72
2022-12-13T03:35:00.634Z,-7.72
2022-12-13T03:35:34.792Z,-7.72
2022-12-13T03:36:01.339Z,-7.72
2022-12-13T03:36:31.229Z,-7.72
2022-12-13T03:37:02.388Z,-7.72
2022-12-13T03:37:33.255Z,-7.72
2022-12-13T03:38:04.302Z,-7.72
2022-12-13T03:38:35.249Z,-7.72
2022-12-13T03:39:06.356Z,-7.72
2022-12-13T03:39:37.337Z,-7.72
2022-12-13T03:40:08.280Z,-7.72
2022-12-13T03:40:39.280Z,-7.72
2022-12-13T03:41:11.236Z,-7.72
2022-12-13T03:41:41.232Z,-7.72
2022-12-13T03:42:12.223Z,-7.72
2022-12-13T03:42:43.255Z,-7.72
2022-12-13T03:43:14.274Z,-7.72
2022-12-13T03:43:45.235Z,-7.72
2022-12-13T03:44:16.298Z,-7.72
2022-12-13T03:44:47.335Z,-7.72
2022-12-13T03:45:30.580Z,-7.72
2022-12-13T03:45:49.251Z,-7.72
2022-12-13T03:46:21.337Z,-7.72
2022-12-13T03:46:51.303Z,-7.72
2022-12-13T03:47:22.298Z,-7.77
2022-12-13T03:47:53.231Z,-7.77
2022-12-13T03:48:24.408Z,-7.77
2022-12-13T03:48:55.263Z,-7.77
2022-12-13T03:49:26.237Z,-7.72
2022-12-13T03:49:57.320Z,-7.72
2022-12-13T03:50:28.245Z,-7.72
2022-12-13T03:50:59.241Z,-7.72
2022-12-13T03:51:31.240Z,-7.61
2022-12-13T03:52:01.242Z,-7.61
2022-12-13T03:52:32.327Z,-7.72
2022-12-13T03:53:03.279Z,-7.72
2022-12-13T03:53:34.619Z,-7.72
2022-12-13T03:54:05.267Z,-7.72
2022-12-13T03:54:36.252Z,-7.72
2022-12-13T03:55:07.477Z,-7.72
2022-12-13T03:55:38.243Z,-7.72
2022-12-13T03:56:09.266Z,-7.72
2022-12-13T03:56:41.267Z,-7.72
2022-12-13T03:57:11.249Z,-7.72
2022-12-13T03:57:42.250Z,-7.72
2022-12-13T03:58:13.241Z,-7.72
2022-12-13T03:58:44.243Z,-7.72
2022-12-13T03:59:15.229Z,-7.61
2022-12-13T03:59:46.222Z,-7.61
2022-12-13T04:00:29.715Z,-7.61
2022-12-13T04:00:48.229Z,-7.61
2022-12-13T04:01:19.312Z,-7.61
2022-12-13T04:01:51.296Z,-7.61
2022-12-13T04:02:30.805Z,-7.61
2022-12-13T04:02:52.444Z,-7.61
2022-12-13T04:03:23.261Z,-7.61
2022-12-13T04:03:54.253Z,-7.61
2022-12-13T04:04:25.310Z,-7.61
2022-12-13T04:04:56.335Z,-7.61
2022-12-13T04:05:27.280Z,-7.61
2022-12-13T04:05:58.304Z,-7.61
2022-12-13T04:06:33.048Z,-7.72
2022-12-13T04:07:01.263Z,-7.72
2022-12-13T04:07:34.406Z,-7.72
2022-12-13T04:08:02.429Z,-7.72
2022-12-13T04:08:33.307Z,-7.72
2022-12-13T04:09:04.309Z,-7.72
2022-12-13T04:09:35.239Z,-7.72
2022-12-13T04:10:25.348Z,-7.72
2022-12-13T04:10:37.354Z,-7.61
2022-12-13T04:11:08.280Z,-7.61
2022-12-13T04:11:42.904Z,-7.61
2022-12-13T04:12:11.212Z,-7.61
2022-12-13T04:12:45.400Z,-7.61
2022-12-13T04:13:12.296Z,-7.61
2022-12-13T04:13:43.246Z,-7.61
2022-12-13T04:14:22.121Z,-7.61
2022-12-13T04:14:45.220Z,-7.61
2022-12-13T04:15:28.566Z,-7.72
2022-12-13T04:15:47.331Z,-7.72
2022-12-13T04:16:18.324Z,-7.72
2022-12-13T04:16:49.227Z,-7.72
2022-12-13T04:17:21.230Z,-7.72
2022-12-13T04:17:51.354Z,-7.77
2022-12-13T04:18:22.311Z,-7.77
2022-12-13T04:18:53.403Z,-7.77
2022-12-13T04:19:24.409Z,-7.77
2022-12-13T04:19:55.240Z,-7.77
2022-12-13T04:20:26.249Z,-7.77
2022-12-13T04:20:57.248Z,-7.77
2022-12-13T04:21:28.282Z,-7.77
2022-12-13T04:21:59.296Z,-7.77
2022-12-13T04:22:31.243Z,-7.77
2022-12-13T04:23:01.231Z,-7.77
2022-12-13T04:23:32.228Z,-7.77
2022-12-13T04:24:03.331Z,-7.88
2022-12-13T04:24:34.250Z,-7.88
2022-12-13T04:25:05.282Z,-7.88
2022-12-13T04:25:36.226Z,-7.88
2022-12-13T04:26:07.334Z,-8.00
2022-12-13T04:26:38.571Z,-8.00
2022-12-13T04:27:09.304Z,-8.00
2022-12-13T04:27:41.288Z,-8.00
2022-12-13T04:28:11.221Z,-8.00
2022-12-13T04:28:42.241Z,-8.00
2022-12-13T04:29:13.291Z,-8.00
2022-12-13T04:29:44.239Z,-8.00
2022-12-13T04:30:27.641Z,-8.00
2022-12-13T04:30:46.276Z,-8.00
2022-12-13T04:31:17.282Z,-8.00
2022-12-13T04:31:48.310Z,-8.00
2022-12-13T04:32:26.676Z,-8.00
2022-12-13T04:32:51.214Z,-8.00
2022-12-13T04:33:21.248Z,-8.00
2022-12-13T04:33:52.281Z,-8.00
2022-12-13T04:34:24.036Z,-8.11
2022-12-13T04:35:01.224Z,-8.11
2022-12-13T04:35:25.311Z,-8.11
2022-12-13T04:35:56.246Z,-8.11
2022-12-13T04:36:32.078Z,-8.11
2022-12-13T04:36:58.245Z,-8.11
2022-12-13T04:37:29.309Z,-8.11
2022-12-13T04:38:01.253Z,-8.11
2022-12-13T04:38:31.217Z,-8.11
2022-12-13T04:39:02.391Z,-8.11
2022-12-13T04:39:34.255Z,-8.11
2022-12-13T04:40:04.255Z,-8.11
2022-12-13T04:40:35.272Z,-8.11
2022-12-13T04:41:06.234Z,-8.11
2022-12-13T04:41:37.266Z,-8.22
2022-12-13T04:42:08.270Z,-8.22
2022-12-13T04:42:39.244Z,-8.22
2022-12-13T04:43:11.216Z,-8.22
2022-12-13T04:43:41.352Z,-8.22
2022-12-13T04:44:27.661Z,-8.22
2022-12-13T04:44:46.054Z,-8.22
2022-12-13T04:45:26.624Z,-8.22
2022-12-13T04:45:45.361Z,-8.22
2022-12-13T04:46:16.310Z,-8.22
2022-12-13T04:46:47.267Z,-8.22
2022-12-13T04:47:18.230Z,-8.22
2022-12-13T04:47:49.226Z,-8.27
2022-12-13T04:48:30.826Z,-8.27
2022-12-13T04:48:51.225Z,-8.27
2022-12-13T04:49:22.281Z,-8.27
2022-12-13T04:49:53.216Z,-8.27
2022-12-13T04:50:24.265Z,-8.27
2022-12-13T04:50:55.440Z,-8.27
2022-12-13T04:51:26.267Z,-8.27
2022-12-13T04:52:00.826Z,-8.27
2022-12-13T04:52:28.240Z,-8.27
2022-12-13T04:52:59.235Z,-8.27
2022-12-13T04:53:31.230Z,-8.27
2022-12-13T04:54:23.324Z,-8.27
2022-12-13T04:54:35.907Z,-8.22
2022-12-13T04:55:03.266Z,-8.22
2022-12-13T04:55:34.229Z,-8.22
2022-12-13T04:56:05.314Z,-8.22
2022-12-13T04:56:36.250Z,-8.27
2022-12-13T04:57:07.299Z,-8.27
2022-12-13T04:57:38.229Z,-8.27
2022-12-13T04:58:09.219Z,-8.27
2022-12-13T04:58:41.247Z,-8.27
2022-12-13T04:59:11.224Z,-8.27
2022-12-13T04:59:42.219Z,-8.27
2022-12-13T05:00:25.594Z,-8.27
2022-12-13T05:00:44.625Z,-8.27
2022-12-13T05:01:15.249Z,-8.27
2022-12-13T05:01:46.238Z,-8.27
2022-12-13T05:02:23.401Z,-8.27
2022-12-13T05:02:48.329Z,-8.27
2022-12-13T05:03:19.220Z,-8.27
2022-12-13T05:03:51.210Z,-8.27
2022-12-13T05:04:21.208Z,-8.27
2022-12-13T05:04:53.550Z,-8.27
2022-12-13T05:05:23.262Z,-8.27
2022-12-13T05:05:54.235Z,-8.27
2022-12-13T05:06:27.059Z,-8.27
2022-12-13T05:06:56.431Z,-8.27
2022-12-13T05:07:27.240Z,-8.27
2022-12-13T05:07:58.291Z,-8.27
2022-12-13T05:08:29.274Z,-8.22
2022-12-13T05:09:01.317Z,-8.22
2022-12-13T05:09:31.225Z,-8.22
2022-12-13T05:10:02.365Z,-8.27
2022-12-13T05:10:37.845Z,-8.27
2022-12-13T05:11:04.217Z,-8.27
2022-12-13T05:11:36.022Z,-8.22
2022-12-13T05:12:06.317Z,-8.22
2022-12-13T05:12:37.296Z,-8.22
2022-12-13T05:13:08.251Z,-8.22
2022-12-13T05:13:39.204Z,-8.22
2022-12-13T05:14:11.251Z,-8.27
2022-12-13T05:14:41.211Z,-8.27
2022-12-13T05:15:24.534Z,-8.27
2022-12-13T05:15:43.256Z,-8.27
2022-12-13T05:16:14.258Z,-8.27
2022-12-13T05:16:45.294Z,-8.27
2022-12-13T05:17:16.225Z,-8.27
2022-12-13T05:17:47.212Z,-8.27
2022-12-13T05:18:18.230Z,-8.27
2022-12-13T05:18:49.217Z,-8.27
2022-12-13T05:19:21.222Z,-8.27
2022-12-13T05:19:51.235Z,-8.27
2022-12-13T05:20:22.311Z,-8.38
2022-12-13T05:20:53.222Z,-8.38
2022-12-13T05:21:24.228Z,-8.38
2022-12-13T05:21:57.210Z,-8.38
2022-12-13T05:22:26.230Z,-8.38
2022-12-13T05:22:57.269Z,-8.38
2022-12-13T05:23:28.220Z,-8.38
2022-12-13T05:23:59.229Z,-8.38
2022-12-13T05:24:31.224Z,-8.38
2022-12-13T05:25:01.346Z,-8.38
2022-12-13T05:25:32.268Z,-8.38
2022-12-13T05:26:03.239Z,-8.50
2022-12-13T05:26:34.271Z,-8.50
2022-12-13T05:27:23.781Z,-8.50
2022-12-13T05:27:36.227Z,-8.50
2022-12-13T05:28:08.895Z,-8.50
2022-12-13T05:28:38.634Z,-8.50
2022-12-13T05:29:09.261Z,-8.50
2022-12-13T05:29:41.232Z,-8.50
2022-12-13T05:30:23.766Z,-8.50
2022-12-13T05:30:42.249Z,-8.61
2022-12-13T05:31:22.673Z,-8.61
2022-12-13T05:31:44.331Z,-8.61
2022-12-13T05:32:15.322Z,-8.61
2022-12-13T05:32:46.225Z,-8.50
2022-12-13T05:33:17.243Z,-8.50
2022-12-13T05:33:48.242Z,-8.50
2022-12-13T05:34:19.203Z,-8.61
2022-12-13T05:34:51.202Z,-8.61
2022-12-13T05:35:22.367Z,-8.61
2022-12-13T05:35:57.642Z,-8.61
2022-12-13T05:36:23.215Z,-8.61
2022-12-13T05:36:54.222Z,-8.61
2022-12-13T05:37:25.262Z,-8.72
2022-12-13T05:37:56.198Z,-8.72
2022-12-13T05:38:27.225Z,-8.72
2022-12-13T05:39:03.211Z,-8.72
2022-12-13T05:39:30.164Z,-8.61
2022-12-13T05:40:01.237Z,-8.61
2022-12-13T05:40:31.293Z,-8.61
2022-12-13T05:41:02.337Z,-8.61
2022-12-13T05:41:33.211Z,-8.72
2022-12-13T05:42:04.232Z,-8.72
2022-12-13T05:42:35.210Z,-8.72
2022-12-13T05:43:22.189Z,-8.72
2022-12-13T05:43:42.411Z,-8.72
2022-12-13T05:44:08.242Z,-8.72
2022-12-13T05:44:39.205Z,-8.72
2022-12-13T05:45:23.671Z,-8.72
2022-12-13T05:45:41.249Z,-8.72
2022-12-13T05:46:12.282Z,-8.72
2022-12-13T05:46:43.214Z,-8.72
2022-12-13T05:47:14.269Z,-8.72
2022-12-13T05:47:45.208Z,-8.72
2022-12-13T05:48:16.261Z,-8.72
2022-12-13T05:48:47.221Z,-8.72
2022-12-13T05:49:18.223Z,-8.72
2022-12-13T05:49:49.187Z,-8.72
2022-12-13T05:50:21.216Z,-8.72
2022-12-13T05:50:51.209Z,-8.72
2022-12-13T05:51:22.194Z,-8.72
2022-12-13T05:51:53.207Z,-8.72
2022-12-13T05:52:30.306Z,-8.77
2022-12-13T05:52:55.250Z,-8.77
2022-12-13T05:53:30.567Z,-8.77
2022-12-13T05:53:57.243Z,-8.77
2022-12-13T05:54:28.221Z,-8.77
2022-12-13T05:55:01.028Z,-8.77
2022-12-13T05:55:31.260Z,-8.77
2022-12-13T05:56:01.264Z,-8.77
2022-12-13T05:56:32.200Z,-8.77
2022-12-13T05:57:03.298Z,-8.77
2022-12-13T05:57:34.267Z,-8.77
2022-12-13T05:58:05.215Z,-8.77
2022-12-13T05:58:36.457Z,-8.77
2022-12-13T05:59:07.284Z,-8.88
2022-12-13T05:59:38.220Z,-8.88
2022-12-13T06:00:29.249Z,-8.88
2022-12-13T06:00:41.259Z,-8.88
2022-12-13T06:01:11.215Z,-8.88
2022-12-13T06:01:44.031Z,-8.88
2022-12-13T06:02:19.753Z,-8.88
2022-12-13T06:02:44.366Z,-8.88
2022-12-13T06:03:15.336Z,-8.88
2022-12-13T06:03:46.415Z,-8.88
2022-12-13T06:04:22.601Z,-8.88
2022-12-13T06:04:48.207Z,-8.88
2022-12-13T06:05:19.225Z,-8.88
2022-12-13T06:05:51.197Z,-9.00
2022-12-13T06:06:21.202Z,-9.00
2022-12-13T06:06:52.280Z,-9.00
2022-12-13T06:07:23.230Z,-9.00
2022-12-13T06:07:57.182Z,-9.00
2022-12-13T06:08:25.645Z,-9.00
2022-12-13T06:08:56.293Z,-9.00
2022-12-13T06:09:27.216Z,-9.00
2022-12-13T06:10:10.240Z,-9.00
2022-12-13T06:10:34.226Z,-9.00
2022-12-13T06:11:10.725Z,-9.00
2022-12-13T06:11:32.534Z,-9.00
2022-12-13T06:12:02.371Z,-9.00
2022-12-13T06:12:33.193Z,-9.00
2022-12-13T06:13:21.040Z,-9.00
2022-12-13T06:13:35.199Z,-9.00
2022-12-13T06:14:06.219Z,-9.00
2022-12-13T06:14:37.221Z,-9.00
2022-12-13T06:15:21.638Z,-9.00
2022-12-13T06:15:44.722Z,-9.00
2022-12-13T06:16:22.182Z,-9.00
2022-12-13T06:16:41.222Z,-9.00
2022-12-13T06:17:12.288Z,-9.00
2022-12-13T06:17:43.191Z,-9.00
2022-12-13T06:18:14.291Z,-9.00
2022-12-13T06:18:45.201Z,-9.00
2022-12-13T06:19:16.308Z,-9.00
2022-12-13T06:19:47.250Z,-9.00
2022-12-13T06:20:23.711Z,-9.00
2022-12-13T06:20:49.198Z,-9.00
2022-12-13T06:21:21.204Z,-9.11
2022-12-13T06:21:51.242Z,-9.11
2022-12-13T06:22:22.236Z,-9.11
2022-12-13T06:22:53.255Z,-9.11
2022-12-13T06:23:24.194Z,-9.11
2022-12-13T06:23:55.215Z,-9.11
2022-12-13T06:24:26.231Z,-9.11
2022-12-13T06:24:57.199Z,-9.22
2022-12-13T06:25:31.587Z,-9.22
2022-12-13T06:25:59.210Z,-9.22
2022-12-13T06:26:31.237Z,-9.22
2022-12-13T06:27:01.225Z,-9.22
2022-12-13T06:27:32.226Z,-9.22
2022-12-13T06:28:03.270Z,-9.22
2022-12-13T06:28:34.190Z,-9.22
2022-12-13T06:29:05.210Z,-9.22
2022-12-13T06:29:36.190Z,-9.22
2022-12-13T06:30:19.645Z,-9.22
2022-12-13T06:30:42.701Z,-9.22
2022-12-13T06:31:09.402Z,-9.22
2022-12-13T06:31:41.180Z,-9.22
2022-12-13T06:32:11.193Z,-9.22
2022-12-13T06:32:44.000Z,-9.11
2022-12-13T06:33:13.410Z,-9.11
2022-12-13T06:33:44.199Z,-9.11
2022-12-13T06:34:15.569Z,-9.11
2022-12-13T06:34:46.242Z,-9.00
2022-12-13T06:35:27.909Z,-9.00
2022-12-13T06:35:48.182Z,-9.00
2022-12-13T06:36:19.189Z,-8.88
2022-12-13T06:36:51.231Z,-8.88
2022-12-13T06:37:21.203Z,-8.88
2022-12-13T06:37:52.183Z,-8.88
2022-12-13T06:38:31.330Z,-8.88
2022-12-13T06:38:54.217Z,-9.00
2022-12-13T06:39:25.252Z,-9.00
2022-12-13T06:39:56.231Z,-9.00